Aviation Digital Data Service (ADDS)

Output produced by METARs form (1204 UTC 24 February 2018)
found at http://www.aviationweather.gov/adds/metars/
 
MRLB 250500Z 2406/2506 08020KT 9999 FEW045 TX34/2419Z TN24/2412Z 
     TEMPO 2406/2422 08022G33KT
       
MROC 250500Z 2406/2506 10015KT 9999 FEW040 TX30/2419Z TN19/2412Z 
     TEMPO 2506/2512 09015G25KT 
     TEMPO 2417/2423 24007KT FEW030TCU
       
MRLM 250500Z 2406/2506 26006KT 9999 FEW020 TX30/2419Z TN22/2412Z 
     TEMPO 2406/2416 5000 RA BKN015 
     TEMPO 2503/2506 RA BKN015
       
MRPV 250500Z 2406/2506 07015KT 9999 FEW035 TX27/2417Z TN18/2410Z 
     TEMPO 2416/2423 28006KT